sensor_id;sensor_type;location;lat;lon;timestamp;P1;durP1;ratioP1;P2;durP2;ratioP2
46377;SDS011;32083;47.360;9.650;2023-02-01T00:02:01;17.63;;;13.48;;
46377;SDS011;32083;47.360;9.650;2023-02-01T00:04:30;18.70;;;13.13;;
46377;SDS011;32083;47.360;9.650;2023-02-01T00:07:06;19.13;;;14.18;;
46377;SDS011;32083;47.360;9.650;2023-02-01T00:10:11;17.58;;;12.88;;
46377;SDS011;32083;47.360;9.650;2023-02-01T00:12:45;16.92;;;10.95;;
46377;SDS011;32083;47.360;9.650;2023-02-01T00:15:12;15.75;;;11.02;;
46377;SDS011;32083;47.360;9.650;2023-02-01T00:20:59;13.27;;;9.88;;
46377;SDS011;32083;47.360;9.650;2023-02-01T00:23:51;12.40;;;9.30;;
46377;SDS011;32083;47.360;9.650;2023-02-01T00:26:43;13.35;;;9.40;;
46377;SDS011;32083;47.360;9.650;2023-02-01T00:29:17;13.52;;;10.40;;
46377;SDS011;32083;47.360;9.650;2023-02-01T00:32:04;15.68;;;10.70;;
46377;SDS011;32083;47.360;9.650;2023-02-01T00:34:40;14.48;;;9.52;;
46377;SDS011;32083;47.360;9.650;2023-02-01T00:37:28;14.82;;;9.25;;
46377;SDS011;32083;47.360;9.650;2023-02-01T00:39:57;9.93;;;7.85;;
46377;SDS011;32083;47.360;9.650;2023-02-01T00:42:43;11.93;;;7.65;;
46377;SDS011;32083;47.360;9.650;2023-02-01T00:45:23;9.60;;;7.03;;
46377;SDS011;32083;47.360;9.650;2023-02-01T00:47:51;7.80;;;6.25;;
46377;SDS011;32083;47.360;9.650;2023-02-01T00:50:19;9.38;;;6.95;;
46377;SDS011;32083;47.360;9.650;2023-02-01T00:52:46;9.68;;;6.82;;
46377;SDS011;32083;47.360;9.650;2023-02-01T00:55:19;7.95;;;6.38;;
46377;SDS011;32083;47.360;9.650;2023-02-01T00:57:48;9.05;;;6.65;;
46377;SDS011;32083;47.360;9.650;2023-02-01T01:00:22;8.35;;;5.82;;
46377;SDS011;32083;47.360;9.650;2023-02-01T01:02:52;8.15;;;5.75;;
46377;SDS011;32083;47.360;9.650;2023-02-01T01:05:18;9.68;;;6.18;;
46377;SDS011;32083;47.360;9.650;2023-02-01T01:08:09;10.50;;;6.25;;
46377;SDS011;32083;47.360;9.650;2023-02-01T01:10:38;9.07;;;6.53;;
46377;SDS011;32083;47.360;9.650;2023-02-01T01:13:06;7.22;;;6.15;;
46377;SDS011;32083;47.360;9.650;2023-02-01T01:15:39;7.15;;;6.05;;
46377;SDS011;32083;47.360;9.650;2023-02-01T01:18:43;8.80;;;6.47;;
46377;SDS011;32083;47.360;9.650;2023-02-01T01:21:09;9.43;;;6.93;;
46377;SDS011;32083;47.360;9.650;2023-02-01T01:23:38;10.70;;;5.80;;
46377;SDS011;32083;47.360;9.650;2023-02-01T01:26:30;7.40;;;5.65;;
46377;SDS011;32083;47.360;9.650;2023-02-01T01:29:08;9.13;;;7.22;;
46377;SDS011;32083;47.360;9.650;2023-02-01T01:31:36;9.75;;;6.05;;
46377;SDS011;32083;47.360;9.650;2023-02-01T01:34:06;7.57;;;5.88;;
46377;SDS011;32083;47.360;9.650;2023-02-01T01:36:34;6.82;;;5.85;;
46377;SDS011;32083;47.360;9.650;2023-02-01T01:39:23;14.15;;;8.25;;
46377;SDS011;32083;47.360;9.650;2023-02-01T01:41:53;7.40;;;5.55;;
46377;SDS011;32083;47.360;9.650;2023-02-01T01:47:35;9.20;;;6.70;;
46377;SDS011;32083;47.360;9.650;2023-02-01T01:50:21;11.00;;;8.48;;
46377;SDS011;32083;47.360;9.650;2023-02-01T01:52:51;10.93;;;9.10;;
46377;SDS011;32083;47.360;9.650;2023-02-01T01:55:26;12.57;;;9.48;;
46377;SDS011;32083;47.360;9.650;2023-02-01T01:58:27;15.80;;;12.52;;
46377;SDS011;32083;47.360;9.650;2023-02-01T02:00:58;16.17;;;11.60;;
46377;SDS011;32083;47.360;9.650;2023-02-01T02:06:05;13.88;;;10.63;;
46377;SDS011;32083;47.360;9.650;2023-02-01T02:08:58;14.68;;;10.30;;
46377;SDS011;32083;47.360;9.650;2023-02-01T02:11:29;11.90;;;9.75;;
46377;SDS011;32083;47.360;9.650;2023-02-01T02:13:59;14.63;;;10.02;;
46377;SDS011;32083;47.360;9.650;2023-02-01T02:22:24;14.57;;;10.40;;
46377;SDS011;32083;47.360;9.650;2023-02-01T02:27:50;14.73;;;11.50;;
46377;SDS011;32083;47.360;9.650;2023-02-01T02:35:59;13.95;;;10.40;;
46377;SDS011;32083;47.360;9.650;2023-02-01T02:56:35;13.93;;;11.30;;
46377;SDS011;32083;47.360;9.650;2023-02-01T02:59:22;13.52;;;10.27;;
46377;SDS011;32083;47.360;9.650;2023-02-01T03:02:13;16.20;;;10.55;;
46377;SDS011;32083;47.360;9.650;2023-02-01T03:05:02;11.00;;;9.32;;
46377;SDS011;32083;47.360;9.650;2023-02-01T03:07:51;13.65;;;9.50;;
46377;SDS011;32083;47.360;9.650;2023-02-01T03:16:52;14.52;;;9.80;;
46377;SDS011;32083;47.360;9.650;2023-02-01T03:19:57;12.77;;;9.23;;
46377;SDS011;32083;47.360;9.650;2023-02-01T03:25:21;14.02;;;10.10;;
46377;SDS011;32083;47.360;9.650;2023-02-01T03:28:06;13.80;;;10.35;;
46377;SDS011;32083;47.360;9.650;2023-02-01T03:30:46;14.68;;;10.65;;
46377;SDS011;32083;47.360;9.650;2023-02-01T03:33:19;14.10;;;8.98;;
46377;SDS011;32083;47.360;9.650;2023-02-01T03:42:21;12.35;;;8.95;;
46377;SDS011;32083;47.360;9.650;2023-02-01T03:48:06;12.52;;;7.40;;
46377;SDS011;32083;47.360;9.650;2023-02-01T03:53:18;9.60;;;6.30;;
46377;SDS011;32083;47.360;9.650;2023-02-01T03:56:08;7.53;;;5.60;;
46377;SDS011;32083;47.360;9.650;2023-02-01T03:59:05;7.30;;;5.38;;
46377;SDS011;32083;47.360;9.650;2023-02-01T04:04:17;7.47;;;5.43;;
46377;SDS011;32083;47.360;9.650;2023-02-01T04:06:51;9.77;;;6.53;;
46377;SDS011;32083;47.360;9.650;2023-02-01T04:09:37;7.90;;;6.30;;
46377;SDS011;32083;47.360;9.650;2023-02-01T04:12:15;9.85;;;7.75;;
46377;SDS011;32083;47.360;9.650;2023-02-01T04:14:43;10.93;;;6.68;;
46377;SDS011;32083;47.360;9.650;2023-02-01T04:17:08;9.48;;;6.57;;
46377;SDS011;32083;47.360;9.650;2023-02-01T04:19:37;8.98;;;6.25;;
46377;SDS011;32083;47.360;9.650;2023-02-01T04:22:03;6.05;;;5.45;;
46377;SDS011;32083;47.360;9.650;2023-02-01T04:24:29;7.53;;;5.30;;
46377;SDS011;32083;47.360;9.650;2023-02-01T04:27:15;7.25;;;5.75;;
46377;SDS011;32083;47.360;9.650;2023-02-01T04:29:50;8.10;;;5.72;;
46377;SDS011;32083;47.360;9.650;2023-02-01T04:32:20;6.45;;;4.97;;
46377;SDS011;32083;47.360;9.650;2023-02-01T04:34:47;6.97;;;4.97;;
46377;SDS011;32083;47.360;9.650;2023-02-01T04:37:13;9.20;;;6.10;;
46377;SDS011;32083;47.360;9.650;2023-02-01T04:39:39;7.15;;;5.50;;
46377;SDS011;32083;47.360;9.650;2023-02-01T04:42:09;6.88;;;4.97;;
46377;SDS011;32083;47.360;9.650;2023-02-01T04:44:41;7.07;;;4.65;;
46377;SDS011;32083;47.360;9.650;2023-02-01T04:47:24;5.88;;;4.57;;
46377;SDS011;32083;47.360;9.650;2023-02-01T04:52:46;6.97;;;4.68;;
46377;SDS011;32083;47.360;9.650;2023-02-01T04:55:38;6.38;;;4.80;;
46377;SDS011;32083;47.360;9.650;2023-02-01T04:58:07;8.45;;;4.90;;
46377;SDS011;32083;47.360;9.650;2023-02-01T05:01:13;5.75;;;4.93;;
46377;SDS011;32083;47.360;9.650;2023-02-01T05:03:45;6.03;;;4.38;;
46377;SDS011;32083;47.360;9.650;2023-02-01T05:06:27;6.25;;;4.80;;
46377;SDS011;32083;47.360;9.650;2023-02-01T05:09:07;7.22;;;5.75;;
46377;SDS011;32083;47.360;9.650;2023-02-01T05:11:36;6.63;;;4.85;;
46377;SDS011;32083;47.360;9.650;2023-02-01T05:14:21;8.20;;;4.85;;
46377;SDS011;32083;47.360;9.650;2023-02-01T05:19:21;5.88;;;4.45;;
46377;SDS011;32083;47.360;9.650;2023-02-01T05:24:16;6.15;;;4.60;;
46377;SDS011;32083;47.360;9.650;2023-02-01T05:27:04;13.57;;;5.05;;
46377;SDS011;32083;47.360;9.650;2023-02-01T05:29:44;15.23;;;4.93;;
46377;SDS011;32083;47.360;9.650;2023-02-01T05:32:09;6.55;;;4.50;;
46377;SDS011;32083;47.360;9.650;2023-02-01T05:34:36;7.90;;;5.75;;
46377;SDS011;32083;47.360;9.650;2023-02-01T05:37:04;10.50;;;7.85;;
46377;SDS011;32083;47.360;9.650;2023-02-01T05:39:29;10.20;;;7.68;;
46377;SDS011;32083;47.360;9.650;2023-02-01T05:42:00;8.45;;;6.97;;
46377;SDS011;32083;47.360;9.650;2023-02-01T05:44:34;8.57;;;6.20;;
46377;SDS011;32083;47.360;9.650;2023-02-01T05:47:01;10.63;;;6.93;;
46377;SDS011;32083;47.360;9.650;2023-02-01T05:49:30;10.68;;;6.55;;
46377;SDS011;32083;47.360;9.650;2023-02-01T05:52:00;8.73;;;6.85;;
46377;SDS011;32083;47.360;9.650;2023-02-01T05:54:26;10.90;;;8.23;;
46377;SDS011;32083;47.360;9.650;2023-02-01T05:57:09;11.30;;;8.77;;
46377;SDS011;32083;47.360;9.650;2023-02-01T05:59:37;10.88;;;5.80;;
46377;SDS011;32083;47.360;9.650;2023-02-01T06:02:33;7.90;;;5.70;;
46377;SDS011;32083;47.360;9.650;2023-02-01T06:05:02;8.10;;;4.90;;
46377;SDS011;32083;47.360;9.650;2023-02-01T06:07:28;9.23;;;5.82;;
46377;SDS011;32083;47.360;9.650;2023-02-01T06:09:57;7.50;;;4.63;;
46377;SDS011;32083;47.360;9.650;2023-02-01T06:12:26;11.00;;;5.40;;
46377;SDS011;32083;47.360;9.650;2023-02-01T06:15:05;5.22;;;4.60;;
46377;SDS011;32083;47.360;9.650;2023-02-01T06:17:33;8.35;;;5.25;;
46377;SDS011;32083;47.360;9.650;2023-02-01T06:19:59;8.98;;;5.65;;
46377;SDS011;32083;47.360;9.650;2023-02-01T06:22:28;7.68;;;5.57;;
46377;SDS011;32083;47.360;9.650;2023-02-01T06:24:59;7.00;;;5.10;;
46377;SDS011;32083;47.360;9.650;2023-02-01T06:27:25;8.68;;;5.57;;
46377;SDS011;32083;47.360;9.650;2023-02-01T06:30:03;7.50;;;4.90;;
46377;SDS011;32083;47.360;9.650;2023-02-01T06:32:35;6.85;;;5.18;;
46377;SDS011;32083;47.360;9.650;2023-02-01T06:35:04;6.45;;;5.43;;
46377;SDS011;32083;47.360;9.650;2023-02-01T06:37:32;6.47;;;4.68;;
46377;SDS011;32083;47.360;9.650;2023-02-01T06:40:17;6.22;;;5.50;;
46377;SDS011;32083;47.360;9.650;2023-02-01T06:43:07;6.35;;;5.25;;
46377;SDS011;32083;47.360;9.650;2023-02-01T06:45:41;6.50;;;4.35;;
46377;SDS011;32083;47.360;9.650;2023-02-01T06:48:08;6.97;;;4.72;;
46377;SDS011;32083;47.360;9.650;2023-02-01T06:50:34;7.40;;;4.07;;
46377;SDS011;32083;47.360;9.650;2023-02-01T06:53:03;7.25;;;4.50;;
46377;SDS011;32083;47.360;9.650;2023-02-01T06:55:31;6.10;;;4.95;;
46377;SDS011;32083;47.360;9.650;2023-02-01T06:58:18;9.73;;;4.75;;
46377;SDS011;32083;47.360;9.650;2023-02-01T07:00:45;8.70;;;4.13;;
46377;SDS011;32083;47.360;9.650;2023-02-01T07:03:12;10.05;;;4.43;;
46377;SDS011;32083;47.360;9.650;2023-02-01T07:06:02;8.75;;;4.43;;
46377;SDS011;32083;47.360;9.650;2023-02-01T07:08:33;8.45;;;4.70;;
46377;SDS011;32083;47.360;9.650;2023-02-01T07:11:10;10.02;;;4.68;;
46377;SDS011;32083;47.360;9.650;2023-02-01T07:13:40;7.63;;;4.47;;
46377;SDS011;32083;47.360;9.650;2023-02-01T07:16:11;8.65;;;3.70;;
46377;SDS011;32083;47.360;9.650;2023-02-01T07:18:42;6.65;;;4.53;;
46377;SDS011;32083;47.360;9.650;2023-02-01T07:21:08;5.75;;;4.07;;
46377;SDS011;32083;47.360;9.650;2023-02-01T07:23:45;6.35;;;4.30;;
46377;SDS011;32083;47.360;9.650;2023-02-01T07:26:44;5.00;;;3.42;;
46377;SDS011;32083;47.360;9.650;2023-02-01T07:29:12;5.35;;;3.95;;
46377;SDS011;32083;47.360;9.650;2023-02-01T07:31:58;4.93;;;3.60;;
46377;SDS011;32083;47.360;9.650;2023-02-01T07:34:27;5.10;;;3.63;;
46377;SDS011;32083;47.360;9.650;2023-02-01T07:36:55;6.93;;;4.05;;
46377;SDS011;32083;47.360;9.650;2023-02-01T07:39:27;6.15;;;3.65;;
46377;SDS011;32083;47.360;9.650;2023-02-01T07:42:05;4.93;;;3.28;;
46377;SDS011;32083;47.360;9.650;2023-02-01T07:44:34;4.80;;;3.78;;
46377;SDS011;32083;47.360;9.650;2023-02-01T07:47:12;5.95;;;3.35;;
46377;SDS011;32083;47.360;9.650;2023-02-01T07:49:49;6.85;;;3.67;;
46377;SDS011;32083;47.360;9.650;2023-02-01T07:52:16;5.00;;;3.35;;
46377;SDS011;32083;47.360;9.650;2023-02-01T07:55:18;6.85;;;3.55;;
46377;SDS011;32083;47.360;9.650;2023-02-01T07:57:44;4.55;;;3.63;;
46377;SDS011;32083;47.360;9.650;2023-02-01T08:00:16;6.80;;;3.70;;
46377;SDS011;32083;47.360;9.650;2023-02-01T08:03:06;5.13;;;4.07;;
46377;SDS011;32083;47.360;9.650;2023-02-01T08:05:32;6.30;;;4.18;;
46377;SDS011;32083;47.360;9.650;2023-02-01T08:07:58;9.20;;;4.70;;
46377;SDS011;32083;47.360;9.650;2023-02-01T08:10:24;7.45;;;4.65;;
46377;SDS011;32083;47.360;9.650;2023-02-01T08:12:50;5.60;;;5.03;;
46377;SDS011;32083;47.360;9.650;2023-02-01T08:15:17;6.65;;;3.60;;
46377;SDS011;32083;47.360;9.650;2023-02-01T08:17:46;4.35;;;3.75;;
46377;SDS011;32083;47.360;9.650;2023-02-01T08:20:16;6.22;;;4.80;;
46377;SDS011;32083;47.360;9.650;2023-02-01T08:22:42;5.68;;;3.40;;
46377;SDS011;32083;47.360;9.650;2023-02-01T08:25:08;7.30;;;4.28;;
46377;SDS011;32083;47.360;9.650;2023-02-01T08:27:35;6.68;;;3.97;;
46377;SDS011;32083;47.360;9.650;2023-02-01T08:30:02;7.95;;;3.88;;
46377;SDS011;32083;47.360;9.650;2023-02-01T08:32:29;6.32;;;4.05;;
46377;SDS011;32083;47.360;9.650;2023-02-01T08:34:55;7.28;;;3.75;;
46377;SDS011;32083;47.360;9.650;2023-02-01T08:37:21;6.13;;;3.47;;
46377;SDS011;32083;47.360;9.650;2023-02-01T08:39:47;6.10;;;3.78;;
46377;SDS011;32083;47.360;9.650;2023-02-01T08:42:15;8.40;;;5.35;;
46377;SDS011;32083;47.360;9.650;2023-02-01T08:45:00;8.75;;;5.03;;
46377;SDS011;32083;47.360;9.650;2023-02-01T08:47:27;7.05;;;4.82;;
46377;SDS011;32083;47.360;9.650;2023-02-01T08:49:53;5.07;;;3.08;;
46377;SDS011;32083;47.360;9.650;2023-02-01T08:52:19;6.20;;;4.05;;
46377;SDS011;32083;47.360;9.650;2023-02-01T08:54:45;5.40;;;3.17;;
46377;SDS011;32083;47.360;9.650;2023-02-01T08:57:11;8.45;;;4.40;;
46377;SDS011;32083;47.360;9.650;2023-02-01T08:59:37;12.77;;;4.72;;
46377;SDS011;32083;47.360;9.650;2023-02-01T09:02:03;5.63;;;3.53;;
46377;SDS011;32083;47.360;9.650;2023-02-01T09:04:28;6.43;;;3.17;;
46377;SDS011;32083;47.360;9.650;2023-02-01T09:06:54;8.25;;;3.25;;
46377;SDS011;32083;47.360;9.650;2023-02-01T09:09:23;5.75;;;3.17;;
46377;SDS011;32083;47.360;9.650;2023-02-01T09:11:52;6.50;;;3.50;;
46377;SDS011;32083;47.360;9.650;2023-02-01T09:14:18;9.52;;;4.40;;
46377;SDS011;32083;47.360;9.650;2023-02-01T09:16:44;4.35;;;3.00;;
46377;SDS011;32083;47.360;9.650;2023-02-01T09:19:10;5.57;;;3.50;;
46377;SDS011;32083;47.360;9.650;2023-02-01T09:21:35;7.20;;;4.20;;
46377;SDS011;32083;47.360;9.650;2023-02-01T09:24:02;8.57;;;4.07;;
46377;SDS011;32083;47.360;9.650;2023-02-01T09:26:29;6.07;;;3.75;;
46377;SDS011;32083;47.360;9.650;2023-02-01T09:28:55;18.17;;;4.90;;
46377;SDS011;32083;47.360;9.650;2023-02-01T09:31:21;7.93;;;4.07;;
46377;SDS011;32083;47.360;9.650;2023-02-01T09:33:47;7.32;;;3.95;;
46377;SDS011;32083;47.360;9.650;2023-02-01T09:36:13;6.45;;;4.10;;
46377;SDS011;32083;47.360;9.650;2023-02-01T09:38:39;7.18;;;3.72;;
46377;SDS011;32083;47.360;9.650;2023-02-01T09:41:16;6.07;;;5.05;;
46377;SDS011;32083;47.360;9.650;2023-02-01T09:44:12;8.63;;;5.75;;
46377;SDS011;32083;47.360;9.650;2023-02-01T09:46:43;17.75;;;6.05;;
46377;SDS011;32083;47.360;9.650;2023-02-01T09:49:18;18.30;;;5.95;;
46377;SDS011;32083;47.360;9.650;2023-02-01T09:51:49;14.15;;;5.40;;
46377;SDS011;32083;47.360;9.650;2023-02-01T09:54:40;10.88;;;4.93;;
46377;SDS011;32083;47.360;9.650;2023-02-01T09:57:16;12.32;;;5.55;;
46377;SDS011;32083;47.360;9.650;2023-02-01T10:00:00;10.63;;;4.70;;
46377;SDS011;32083;47.360;9.650;2023-02-01T10:02:40;16.30;;;4.80;;
46377;SDS011;32083;47.360;9.650;2023-02-01T10:05:11;12.05;;;4.63;;
46377;SDS011;32083;47.360;9.650;2023-02-01T10:26:33;8.43;;;5.07;;
46377;SDS011;32083;47.360;9.650;2023-02-01T10:29:04;11.45;;;4.95;;
46377;SDS011;32083;47.360;9.650;2023-02-01T10:31:44;6.55;;;4.72;;
46377;SDS011;32083;47.360;9.650;2023-02-01T10:34:15;6.25;;;3.97;;
46377;SDS011;32083;47.360;9.650;2023-02-01T10:36:56;7.95;;;5.30;;
46377;SDS011;32083;47.360;9.650;2023-02-01T10:39:22;15.55;;;5.00;;
46377;SDS011;32083;47.360;9.650;2023-02-01T10:41:49;8.00;;;4.35;;
46377;SDS011;32083;47.360;9.650;2023-02-01T10:44:16;8.80;;;4.13;;
46377;SDS011;32083;47.360;9.650;2023-02-01T10:46:49;8.10;;;5.40;;
46377;SDS011;32083;47.360;9.650;2023-02-01T10:54:42;10.02;;;5.50;;
46377;SDS011;32083;47.360;9.650;2023-02-01T10:57:09;10.75;;;5.22;;
46377;SDS011;32083;47.360;9.650;2023-02-01T10:59:36;6.70;;;4.57;;
46377;SDS011;32083;47.360;9.650;2023-02-01T11:02:19;7.78;;;4.35;;
46377;SDS011;32083;47.360;9.650;2023-02-01T11:05:33;8.68;;;5.47;;
46377;SDS011;32083;47.360;9.650;2023-02-01T11:07:54;6.65;;;4.75;;
46377;SDS011;32083;47.360;9.650;2023-02-01T11:10:34;6.72;;;3.78;;
46377;SDS011;32083;47.360;9.650;2023-02-01T11:13:07;12.25;;;5.10;;
46377;SDS011;32083;47.360;9.650;2023-02-01T11:15:45;10.15;;;4.90;;
46377;SDS011;32083;47.360;9.650;2023-02-01T11:18:20;8.93;;;5.22;;
46377;SDS011;32083;47.360;9.650;2023-02-01T11:20:54;8.32;;;5.97;;
46377;SDS011;32083;47.360;9.650;2023-02-01T11:23:27;7.65;;;4.50;;
46377;SDS011;32083;47.360;9.650;2023-02-01T11:26:07;7.53;;;4.57;;
46377;SDS011;32083;47.360;9.650;2023-02-01T11:28:38;13.05;;;5.30;;
46377;SDS011;32083;47.360;9.650;2023-02-01T11:31:11;14.55;;;4.78;;
46377;SDS011;32083;47.360;9.650;2023-02-01T11:33:39;8.80;;;4.60;;
46377;SDS011;32083;47.360;9.650;2023-02-01T11:36:18;9.80;;;5.05;;
46377;SDS011;32083;47.360;9.650;2023-02-01T11:38:54;17.65;;;5.75;;
46377;SDS011;32083;47.360;9.650;2023-02-01T11:41:33;8.52;;;4.13;;
46377;SDS011;32083;47.360;9.650;2023-02-01T11:44:15;7.25;;;4.30;;
46377;SDS011;32083;47.360;9.650;2023-02-01T11:46:48;9.70;;;5.32;;
46377;SDS011;32083;47.360;9.650;2023-02-01T12:00:31;7.70;;;4.32;;
46377;SDS011;32083;47.360;9.650;2023-02-01T12:14:19;8.03;;;4.23;;
46377;SDS011;32083;47.360;9.650;2023-02-01T12:20:33;13.20;;;5.07;;
46377;SDS011;32083;47.360;9.650;2023-02-01T12:23:15;7.53;;;4.82;;
46377;SDS011;32083;47.360;9.650;2023-02-01T12:37:18;10.02;;;5.53;;
46377;SDS011;32083;47.360;9.650;2023-02-01T12:42:58;10.57;;;5.15;;
46377;SDS011;32083;47.360;9.650;2023-02-01T12:50:55;5.05;;;4.20;;
46377;SDS011;32083;47.360;9.650;2023-02-01T12:53:30;8.40;;;6.35;;
46377;SDS011;32083;47.360;9.650;2023-02-01T12:56:35;11.60;;;5.32;;
46377;SDS011;32083;47.360;9.650;2023-02-01T12:59:26;8.30;;;4.15;;
46377;SDS011;32083;47.360;9.650;2023-02-01T13:04:42;8.38;;;2.97;;
46377;SDS011;32083;47.360;9.650;2023-02-01T13:07:18;17.83;;;3.97;;
46377;SDS011;32083;47.360;9.650;2023-02-01T13:15:42;4.10;;;1.52;;
46377;SDS011;32083;47.360;9.650;2023-02-01T13:18:11;3.95;;;1.83;;
46377;SDS011;32083;47.360;9.650;2023-02-01T13:23:09;6.45;;;1.40;;
46377;SDS011;32083;47.360;9.650;2023-02-01T13:34:16;2.08;;;1.00;;
46377;SDS011;32083;47.360;9.650;2023-02-01T13:43:17;2.05;;;1.35;;
46377;SDS011;32083;47.360;9.650;2023-02-01T13:45:49;2.28;;;1.40;;
46377;SDS011;32083;47.360;9.650;2023-02-01T13:51:01;2.38;;;1.60;;
46377;SDS011;32083;47.360;9.650;2023-02-01T13:53:31;2.40;;;1.20;;
46377;SDS011;32083;47.360;9.650;2023-02-01T14:03:58;3.45;;;1.42;;
46377;SDS011;32083;47.360;9.650;2023-02-01T14:11:43;3.03;;;1.40;;
46377;SDS011;32083;47.360;9.650;2023-02-01T14:19:30;4.03;;;1.85;;
46377;SDS011;32083;47.360;9.650;2023-02-01T14:21:58;4.88;;;2.03;;
46377;SDS011;32083;47.360;9.650;2023-02-01T14:27:00;1.95;;;1.50;;
46377;SDS011;32083;47.360;9.650;2023-02-01T14:29:42;10.40;;;2.03;;
46377;SDS011;32083;47.360;9.650;2023-02-01T14:32:21;3.58;;;1.90;;
46377;SDS011;32083;47.360;9.650;2023-02-01T14:34:54;2.33;;;1.50;;
46377;SDS011;32083;47.360;9.650;2023-02-01T14:37:34;2.92;;;1.70;;
46377;SDS011;32083;47.360;9.650;2023-02-01T14:40:14;6.20;;;1.58;;
46377;SDS011;32083;47.360;9.650;2023-02-01T14:42:48;5.40;;;1.38;;
46377;SDS011;32083;47.360;9.650;2023-02-01T14:58:06;4.25;;;1.70;;
46377;SDS011;32083;47.360;9.650;2023-02-01T15:00:47;12.23;;;2.92;;
46377;SDS011;32083;47.360;9.650;2023-02-01T15:14:41;5.03;;;1.95;;
46377;SDS011;32083;47.360;9.650;2023-02-01T15:19:53;4.50;;;2.60;;
46377;SDS011;32083;47.360;9.650;2023-02-01T15:22:24;10.13;;;3.72;;
46377;SDS011;32083;47.360;9.650;2023-02-01T15:24:54;4.53;;;3.17;;
46377;SDS011;32083;47.360;9.650;2023-02-01T15:27:25;4.13;;;2.53;;
46377;SDS011;32083;47.360;9.650;2023-02-01T15:30:04;4.50;;;2.63;;
46377;SDS011;32083;47.360;9.650;2023-02-01T15:32:41;2.97;;;1.85;;
46377;SDS011;32083;47.360;9.650;2023-02-01T15:43:31;4.63;;;2.88;;
46377;SDS011;32083;47.360;9.650;2023-02-01T15:46:00;4.07;;;2.83;;
46377;SDS011;32083;47.360;9.650;2023-02-01T15:48:34;5.07;;;2.50;;
46377;SDS011;32083;47.360;9.650;2023-02-01T15:51:11;4.00;;;2.28;;
46377;SDS011;32083;47.360;9.650;2023-02-01T15:56:08;2.92;;;1.65;;
46377;SDS011;32083;47.360;9.650;2023-02-01T15:58:34;3.40;;;1.75;;
46377;SDS011;32083;47.360;9.650;2023-02-01T16:01:04;3.50;;;2.20;;
46377;SDS011;32083;47.360;9.650;2023-02-01T16:06:11;4.47;;;2.10;;
46377;SDS011;32083;47.360;9.650;2023-02-01T16:08:52;5.25;;;2.30;;
46377;SDS011;32083;47.360;9.650;2023-02-01T16:14:19;27.92;;;6.50;;
46377;SDS011;32083;47.360;9.650;2023-02-01T16:16:46;7.60;;;2.75;;
46377;SDS011;32083;47.360;9.650;2023-02-01T16:19:12;3.47;;;2.10;;
46377;SDS011;32083;47.360;9.650;2023-02-01T16:21:38;9.13;;;3.42;;
46377;SDS011;32083;47.360;9.650;2023-02-01T16:24:04;4.97;;;2.80;;
46377;SDS011;32083;47.360;9.650;2023-02-01T16:26:31;4.60;;;1.98;;
46377;SDS011;32083;47.360;9.650;2023-02-01T16:28:58;4.25;;;2.58;;
46377;SDS011;32083;47.360;9.650;2023-02-01T16:31:30;6.15;;;2.95;;
46377;SDS011;32083;47.360;9.650;2023-02-01T16:33:59;6.88;;;3.60;;
46377;SDS011;32083;47.360;9.650;2023-02-01T16:36:24;5.80;;;3.25;;
46377;SDS011;32083;47.360;9.650;2023-02-01T16:38:52;5.80;;;3.35;;
46377;SDS011;32083;47.360;9.650;2023-02-01T16:41:20;6.07;;;4.15;;
46377;SDS011;32083;47.360;9.650;2023-02-01T16:43:51;7.55;;;4.50;;
46377;SDS011;32083;47.360;9.650;2023-02-01T16:46:19;10.07;;;5.32;;
46377;SDS011;32083;47.360;9.650;2023-02-01T16:48:56;8.55;;;5.13;;
46377;SDS011;32083;47.360;9.650;2023-02-01T16:51:24;8.25;;;4.40;;
46377;SDS011;32083;47.360;9.650;2023-02-01T16:53:53;5.03;;;3.65;;
46377;SDS011;32083;47.360;9.650;2023-02-01T16:56:20;5.15;;;3.20;;
46377;SDS011;32083;47.360;9.650;2023-02-01T16:58:56;4.30;;;2.83;;
46377;SDS011;32083;47.360;9.650;2023-02-01T17:01:23;5.78;;;2.85;;
46377;SDS011;32083;47.360;9.650;2023-02-01T17:03:49;5.13;;;2.75;;
46377;SDS011;32083;47.360;9.650;2023-02-01T17:06:19;4.32;;;2.35;;
46377;SDS011;32083;47.360;9.650;2023-02-01T17:08:52;8.43;;;3.70;;
46377;SDS011;32083;47.360;9.650;2023-02-01T17:11:20;5.28;;;1.75;;
46377;SDS011;32083;47.360;9.650;2023-02-01T17:13:46;6.82;;;2.95;;
46377;SDS011;32083;47.360;9.650;2023-02-01T17:16:26;4.03;;;1.65;;
46377;SDS011;32083;47.360;9.650;2023-02-01T17:18:58;3.95;;;1.75;;
46377;SDS011;32083;47.360;9.650;2023-02-01T17:21:27;6.55;;;3.67;;
46377;SDS011;32083;47.360;9.650;2023-02-01T17:23:55;3.90;;;1.92;;
46377;SDS011;32083;47.360;9.650;2023-02-01T17:26:24;4.95;;;2.40;;
46377;SDS011;32083;47.360;9.650;2023-02-01T17:28:50;5.93;;;2.53;;
46377;SDS011;32083;47.360;9.650;2023-02-01T17:31:16;3.80;;;2.00;;
46377;SDS011;32083;47.360;9.650;2023-02-01T17:33:43;4.07;;;1.63;;
46377;SDS011;32083;47.360;9.650;2023-02-01T17:36:13;3.67;;;1.75;;
46377;SDS011;32083;47.360;9.650;2023-02-01T17:38:41;6.97;;;2.90;;
46377;SDS011;32083;47.360;9.650;2023-02-01T17:41:11;7.97;;;5.10;;
46377;SDS011;32083;47.360;9.650;2023-02-01T17:43:38;6.32;;;4.45;;
46377;SDS011;32083;47.360;9.650;2023-02-01T17:46:14;7.10;;;4.38;;
46377;SDS011;32083;47.360;9.650;2023-02-01T17:48:42;4.22;;;3.58;;
46377;SDS011;32083;47.360;9.650;2023-02-01T17:51:16;8.07;;;4.25;;
46377;SDS011;32083;47.360;9.650;2023-02-01T17:53:44;6.43;;;3.40;;
46377;SDS011;32083;47.360;9.650;2023-02-01T17:56:17;5.35;;;4.13;;
46377;SDS011;32083;47.360;9.650;2023-02-01T17:58:45;6.05;;;3.15;;
46377;SDS011;32083;47.360;9.650;2023-02-01T18:01:22;8.38;;;4.10;;
46377;SDS011;32083;47.360;9.650;2023-02-01T18:03:48;22.58;;;12.00;;
46377;SDS011;32083;47.360;9.650;2023-02-01T18:06:17;12.38;;;6.57;;
46377;SDS011;32083;47.360;9.650;2023-02-01T18:08:45;14.65;;;7.88;;
46377;SDS011;32083;47.360;9.650;2023-02-01T18:11:15;6.30;;;2.88;;
46377;SDS011;32083;47.360;9.650;2023-02-01T18:13:43;13.25;;;8.95;;
46377;SDS011;32083;47.360;9.650;2023-02-01T18:16:17;8.60;;;3.88;;
46377;SDS011;32083;47.360;9.650;2023-02-01T18:18:48;4.13;;;2.20;;
46377;SDS011;32083;47.360;9.650;2023-02-01T18:21:15;24.15;;;17.88;;
46377;SDS011;32083;47.360;9.650;2023-02-01T18:23:44;44.42;;;36.10;;
46377;SDS011;32083;47.360;9.650;2023-02-01T18:26:10;5.05;;;3.50;;
46377;SDS011;32083;47.360;9.650;2023-02-01T18:28:37;4.38;;;1.98;;
46377;SDS011;32083;47.360;9.650;2023-02-01T18:31:04;3.15;;;2.40;;
46377;SDS011;32083;47.360;9.650;2023-02-01T18:33:31;4.97;;;1.90;;
46377;SDS011;32083;47.360;9.650;2023-02-01T18:35:57;3.50;;;1.85;;
46377;SDS011;32083;47.360;9.650;2023-02-01T18:38:23;5.05;;;2.60;;
46377;SDS011;32083;47.360;9.650;2023-02-01T18:43:16;6.07;;;2.10;;
46377;SDS011;32083;47.360;9.650;2023-02-01T18:45:43;3.80;;;1.95;;
46377;SDS011;32083;47.360;9.650;2023-02-01T18:48:12;4.95;;;1.85;;
46377;SDS011;32083;47.360;9.650;2023-02-01T18:50:41;3.13;;;2.05;;
46377;SDS011;32083;47.360;9.650;2023-02-01T18:53:15;3.90;;;1.80;;
46377;SDS011;32083;47.360;9.650;2023-02-01T18:55:56;4.43;;;2.00;;
46377;SDS011;32083;47.360;9.650;2023-02-01T18:58:29;2.78;;;1.83;;
46377;SDS011;32083;47.360;9.650;2023-02-01T19:00:56;4.05;;;1.98;;
46377;SDS011;32083;47.360;9.650;2023-02-01T19:03:28;5.30;;;2.10;;
46377;SDS011;32083;47.360;9.650;2023-02-01T19:05:54;7.47;;;2.33;;
46377;SDS011;32083;47.360;9.650;2023-02-01T19:08:21;4.57;;;1.90;;
46377;SDS011;32083;47.360;9.650;2023-02-01T19:10:48;4.50;;;2.30;;
46377;SDS011;32083;47.360;9.650;2023-02-01T19:13:14;7.60;;;2.10;;
46377;SDS011;32083;47.360;9.650;2023-02-01T19:15:40;4.00;;;1.83;;
46377;SDS011;32083;47.360;9.650;2023-02-01T19:18:08;3.33;;;1.70;;